• Join FlightAware (Why Join?)
  • Login
  • US Flag 
02:53PM EDT


 

Airport Tracker/Info


-or-


 

Live Flight TrackerFlight Track Log ✈ AAR359 ✈ 01-Feb-2014 ✈ RKSI / ICN - ZSHC / HGH

Flight Track Log - Related Links

Times and Time Zones

All times are in EST time to prevent confusion due to time zone crossing. See the AAR359 flight status page for this flight to view local times or setup timezone preferences in your user account.

Time Position Orientation Groundspeed Altitude Reporting Facility
EST Latitude Longitude Course Direction KTS MPH feet Rate Location/Type
10:46PM 37.1991 126.2014 216° Southwest  Level Estimated
10:47PM 37.1315 126.1394 216° Southwest  Level Estimated
10:48PM 37.0639 126.0775 216° Southwest  Level Estimated
10:49PM 36.9963 126.0157 216° Southwest  Level Estimated
10:50PM 36.9286 125.9540 216° Southwest  Level Estimated
10:51PM 36.8609 125.8925 216° Southwest  Level Estimated
10:52PM 36.7931 125.8310 216° Southwest  Level Estimated
10:53PM 36.7253 125.7697 216° Southwest  Level Estimated
10:54PM 36.6576 125.7084 216° Southwest  Level Estimated
10:55PM 36.5897 125.6473 216° Southwest  Level Estimated
10:56PM 36.5219 125.5863 216° Southwest  Level Estimated
10:57PM 36.4540 125.5253 216° Southwest  Level Estimated
10:58PM 36.3860 125.4645 216° Southwest  Level Estimated
10:59PM 36.3181 125.4038 216° Southwest  Level Estimated
11:00PM 36.2501 125.3432 216° Southwest  Level Estimated
11:01PM 36.1821 125.2827 216° Southwest  Level Estimated
11:02PM 36.1140 125.2224 216° Southwest  Level Estimated
11:03PM 36.0459 125.1621 216° Southwest  Level Estimated
11:04PM 35.9778 125.1019 216° Southwest  Level Estimated
11:05PM 35.9097 125.0418 216° Southwest  Level Estimated
11:06PM 35.8415 124.9818 216° Southwest  Level Estimated
11:07PM 35.7733 124.9220 215° Southwest  Level Estimated
11:08PM 35.7051 124.8622 215° Southwest  Level Estimated
11:09PM 35.6368 124.8025 215° Southwest  Level Estimated
11:10PM 35.5685 124.7430 215° Southwest  Level Estimated
11:11PM 35.5002 124.6835 215° Southwest  Level Estimated
11:12PM 35.4319 124.6242 215° Southwest  Level Estimated
11:13PM 35.3635 124.5649 215° Southwest  Level Estimated
11:14PM 35.2951 124.5057 215° Southwest  Level Estimated
11:15PM 35.2267 124.4467 215° Southwest  Level Estimated
11:16PM 35.1582 124.3877 215° Southwest  Level Estimated
11:17PM 35.0897 124.3289 215° Southwest  Level Estimated
11:18PM 35.0212 124.2701 215° Southwest  Level Estimated
11:19PM 34.9526 124.2114 215° Southwest  Level Estimated
11:20PM 34.8841 124.1529 215° Southwest  Level Estimated
11:21PM 34.8155 124.0944 215° Southwest  Level Estimated
11:22PM 34.7468 124.0360 215° Southwest  Level Estimated
11:23PM 34.6782 123.9778 215° Southwest  Level Estimated
11:24PM 34.6095 123.9196 215° Southwest  Level Estimated
11:25PM 34.5408 123.8615 215° Southwest  Level Estimated
11:26PM 34.4720 123.8035 215° Southwest  Level Estimated
11:27PM 34.4033 123.7456 215° Southwest  Level Estimated
11:28PM 34.3345 123.6878 215° Southwest  Level Estimated
11:29PM 34.2657 123.6301 215° Southwest  Level Estimated
11:30PM 34.1968 123.5725 215° Southwest  Level Estimated
11:31PM 34.1279 123.5150 215° Southwest  Level Estimated
11:32PM 34.0590 123.4576 215° Southwest  Level Estimated
11:33PM 33.9901 123.4003 215° Southwest  Level Estimated
11:34PM 33.9211 123.3430 215° Southwest  Level Estimated
11:35PM 33.8521 123.2859 215° Southwest  Level Estimated
11:36PM 33.7831 123.2289 214° Southwest  Level Estimated
11:37PM 33.7141 123.1719 214° Southwest  Level Estimated
11:38PM 33.6450 123.1151 214° Southwest  Level Estimated
11:39PM 33.5760 123.0583 214° Southwest  Level Estimated
11:40PM 33.5068 123.0016 214° Southwest  Level Estimated
11:41PM 33.4377 122.9450 214° Southwest  Level Estimated
11:42PM 33.3685 122.8885 214° Southwest  Level Estimated
11:43PM 33.2994 122.8321 214° Southwest  Level Estimated
11:44PM 33.2301 122.7758 214° Southwest  Level Estimated
11:45PM 33.1609 122.7196 214° Southwest  Level Estimated
11:46PM 33.0916 122.6634 214° Southwest  Level Estimated
11:47PM 33.0223 122.6074 214° Southwest  Level Estimated
11:48PM 32.9530 122.5514 214° Southwest  Level Estimated
11:49PM 32.8837 122.4955 214° Southwest  Level Estimated
11:50PM 32.8143 122.4397 214° Southwest  Level Estimated
11:51PM 32.7449 122.3840 214° Southwest  Level Estimated
11:52PM 32.6755 122.3284 214° Southwest  Level Estimated
11:53PM 32.6060 122.2729 214° Southwest  Level Estimated
11:54PM 32.5366 122.2174 214° Southwest  Level Estimated
11:55PM 32.4671 122.1620 214° Southwest  Level Estimated
11:56PM 32.3976 122.1068 214° Southwest  Level Estimated
11:57PM 32.3280 122.0516 214° Southwest  Level Estimated
11:58PM 32.2585 121.9965 214° Southwest  Level Estimated
11:59PM 32.1889 121.9415 214° Southwest  Level Estimated
12:00AM 32.1193 121.8865 214° Southwest  Level Estimated
12:01AM 32.0497 121.8317 214° Southwest  Level Estimated
12:02AM 31.9800 121.7769 214° Southwest  Level Estimated
12:03AM 31.9103 121.7222 214° Southwest  Level Estimated
12:04AM 31.8406 121.6676 214° Southwest  Level Estimated
12:05AM 31.7709 121.6131 214° Southwest  Level Estimated
12:06AM 31.7012 121.5586 214° Southwest  Level Estimated
12:07AM 31.6314 121.5043 214° Southwest  Level Estimated
12:08AM 31.5616 121.4500 214° Southwest  Level Estimated
12:09AM 31.4918 121.3958 214° Southwest  Level Estimated
12:10AM 31.4219 121.3417 213° Southwest  Level Estimated
12:11AM 31.3521 121.2877 213° Southwest  Level Estimated
12:12AM 31.2822 121.2337 213° Southwest  Level Estimated
12:13AM 31.2123 121.1799 213° Southwest  Level Estimated
12:14AM 31.1423 121.1261 213° Southwest  Level Estimated
12:15AM 31.0724 121.0724 213° Southwest  Level Estimated
12:16AM 31.0024 121.0187 213° Southwest  Level Estimated
12:17AM 30.9324 120.9652 213° Southwest  Level Estimated
12:18AM 30.8624 120.9117 213° Southwest  Level Estimated
12:19AM 30.7924 120.8583 213° Southwest  Level Estimated
12:20AM 30.7223 120.8050 213° Southwest  Level Estimated
12:21AM 30.6522 120.7517 213° Southwest  Level Estimated
12:22AM 30.5821 120.6985 213° Southwest  Level Estimated
12:23AM 30.5120 120.6455 213° Southwest  Level Estimated
12:24AM 30.4418 120.5924 213° Southwest  Level Estimated
12:25AM 30.3717 120.5395 213° Southwest  Level Estimated
12:26AM 30.3015 120.4866 213° Southwest  Level Estimated
12:27AM 30.2313 120.4339 213° Southwest  Level Estimated
12:28AM 30.2283 120.4317 213° Southwest  Level Estimated
12:29AM 30.2283 120.4317 319° Northwest  Level Estimated
12:30AM 30.2283 120.4317 319° Northwest  Level Estimated
12:31AM 30.2283 120.4317 319° Northwest  Level Estimated
12:32AM 30.2283 120.4317 319° Northwest  Level Estimated
12:33AM 30.2283 120.4317 319° Northwest  Level Estimated
12:34AM 30.2283 120.4317 319° Northwest  Level Estimated
12:35AM 30.2283 120.4317 319° Northwest  Level Estimated
12:36AM 30.2283 120.4317 319° Northwest  Level Estimated
12:37AM 30.2283 120.4317 319° Northwest  Level Estimated
12:38AM 30.2283 120.4317 319° Northwest  Level Estimated
12:39AM 30.2283 120.4317 319° Northwest  Level Estimated
12:40AM 30.2283 120.4317 319° Northwest  Level Estimated
12:41AM 30.2283 120.4317 319° Northwest  Level Estimated
12:42AM 30.2283 120.4317 319° Northwest  Level Estimated